sensor_id;sensor_type;location;lat;lon;timestamp;P1;durP1;ratioP1;P2;durP2;ratioP2
54328;SDS011;40710;51.120;13.136;2024-03-08T00:00:21;44.25;;;42.90;;
54328;SDS011;40710;51.120;13.136;2024-03-08T00:02:45;46.10;;;44.56;;
54328;SDS011;40710;51.120;13.136;2024-03-08T00:05:11;47.07;;;45.23;;
54328;SDS011;40710;51.120;13.136;2024-03-08T00:07:38;46.24;;;44.56;;
54328;SDS011;40710;51.120;13.136;2024-03-08T00:10:04;45.55;;;43.99;;
54328;SDS011;40710;51.120;13.136;2024-03-08T00:12:39;45.47;;;43.93;;
54328;SDS011;40710;51.120;13.136;2024-03-08T00:15:06;45.71;;;44.24;;
54328;SDS011;40710;51.120;13.136;2024-03-08T00:17:31;44.45;;;42.98;;
54328;SDS011;40710;51.120;13.136;2024-03-08T00:19:55;45.42;;;43.29;;
54328;SDS011;40710;51.120;13.136;2024-03-08T00:22:20;46.43;;;44.72;;
54328;SDS011;40710;51.120;13.136;2024-03-08T00:24:46;45.66;;;44.05;;
54328;SDS011;40710;51.120;13.136;2024-03-08T00:27:11;46.27;;;44.40;;
54328;SDS011;40710;51.120;13.136;2024-03-08T00:29:35;45.76;;;44.18;;
54328;SDS011;40710;51.120;13.136;2024-03-08T00:32:02;46.02;;;44.14;;
54328;SDS011;40710;51.120;13.136;2024-03-08T00:34:27;46.81;;;45.14;;
54328;SDS011;40710;51.120;13.136;2024-03-08T00:36:51;45.81;;;44.36;;
54328;SDS011;40710;51.120;13.136;2024-03-08T00:39:16;45.10;;;43.50;;
54328;SDS011;40710;51.120;13.136;2024-03-08T00:41:41;46.53;;;45.02;;
54328;SDS011;40710;51.120;13.136;2024-03-08T00:44:05;46.16;;;44.83;;
54328;SDS011;40710;51.120;13.136;2024-03-08T00:46:30;47.26;;;45.38;;
54328;SDS011;40710;51.120;13.136;2024-03-08T00:48:55;46.27;;;44.75;;
54328;SDS011;40710;51.120;13.136;2024-03-08T00:51:20;46.36;;;44.68;;
54328;SDS011;40710;51.120;13.136;2024-03-08T00:53:45;44.61;;;43.03;;
54328;SDS011;40710;51.120;13.136;2024-03-08T00:56:10;45.28;;;43.71;;
54328;SDS011;40710;51.120;13.136;2024-03-08T00:58:38;45.20;;;43.56;;
54328;SDS011;40710;51.120;13.136;2024-03-08T01:01:03;43.42;;;42.03;;
54328;SDS011;40710;51.120;13.136;2024-03-08T01:03:28;43.42;;;42.08;;
54328;SDS011;40710;51.120;13.136;2024-03-08T01:05:56;43.91;;;42.56;;
54328;SDS011;40710;51.120;13.136;2024-03-08T01:08:20;45.34;;;43.55;;
54328;SDS011;40710;51.120;13.136;2024-03-08T01:10:45;44.29;;;42.71;;
54328;SDS011;40710;51.120;13.136;2024-03-08T01:13:09;43.82;;;42.32;;
54328;SDS011;40710;51.120;13.136;2024-03-08T01:15:34;44.88;;;43.07;;
54328;SDS011;40710;51.120;13.136;2024-03-08T01:17:58;44.72;;;43.06;;
54328;SDS011;40710;51.120;13.136;2024-03-08T01:20:25;44.48;;;42.93;;
54328;SDS011;40710;51.120;13.136;2024-03-08T01:22:49;45.57;;;44.23;;
54328;SDS011;40710;51.120;13.136;2024-03-08T01:25:14;45.93;;;44.08;;
54328;SDS011;40710;51.120;13.136;2024-03-08T01:27:38;44.61;;;43.25;;
54328;SDS011;40710;51.120;13.136;2024-03-08T01:30:03;45.30;;;43.63;;
54328;SDS011;40710;51.120;13.136;2024-03-08T01:32:28;44.88;;;43.32;;
54328;SDS011;40710;51.120;13.136;2024-03-08T01:34:53;45.50;;;43.45;;
54328;SDS011;40710;51.120;13.136;2024-03-08T01:37:17;44.47;;;43.06;;
54328;SDS011;40710;51.120;13.136;2024-03-08T01:39:42;44.66;;;43.12;;
54328;SDS011;40710;51.120;13.136;2024-03-08T01:42:06;44.38;;;42.67;;
54328;SDS011;40710;51.120;13.136;2024-03-08T01:44:31;44.74;;;42.96;;
54328;SDS011;40710;51.120;13.136;2024-03-08T01:46:55;44.64;;;42.97;;
54328;SDS011;40710;51.120;13.136;2024-03-08T01:49:20;45.30;;;43.58;;
54328;SDS011;40710;51.120;13.136;2024-03-08T01:51:46;45.24;;;43.61;;
54328;SDS011;40710;51.120;13.136;2024-03-08T01:54:12;44.88;;;43.19;;
54328;SDS011;40710;51.120;13.136;2024-03-08T01:56:39;44.20;;;42.71;;
54328;SDS011;40710;51.120;13.136;2024-03-08T01:59:04;45.79;;;43.89;;
54328;SDS011;40710;51.120;13.136;2024-03-08T02:01:31;44.05;;;42.45;;
54328;SDS011;40710;51.120;13.136;2024-03-08T02:03:57;45.08;;;43.63;;
54328;SDS011;40710;51.120;13.136;2024-03-08T02:06:22;45.24;;;43.38;;
54328;SDS011;40710;51.120;13.136;2024-03-08T02:08:47;45.71;;;44.32;;
54328;SDS011;40710;51.120;13.136;2024-03-08T02:11:12;44.85;;;43.38;;
54328;SDS011;40710;51.120;13.136;2024-03-08T02:13:37;45.93;;;44.12;;
54328;SDS011;40710;51.120;13.136;2024-03-08T02:16:02;47.61;;;45.47;;
54328;SDS011;40710;51.120;13.136;2024-03-08T02:18:28;47.06;;;45.15;;
54328;SDS011;40710;51.120;13.136;2024-03-08T02:20:54;45.97;;;44.41;;
54328;SDS011;40710;51.120;13.136;2024-03-08T02:23:28;46.88;;;45.40;;
54328;SDS011;40710;51.120;13.136;2024-03-08T02:25:54;46.73;;;45.18;;
54328;SDS011;40710;51.120;13.136;2024-03-08T02:28:20;46.96;;;45.12;;
54328;SDS011;40710;51.120;13.136;2024-03-08T02:30:48;48.36;;;46.37;;
54328;SDS011;40710;51.120;13.136;2024-03-08T02:33:20;47.32;;;45.63;;
54328;SDS011;40710;51.120;13.136;2024-03-08T02:35:45;47.04;;;45.27;;
54328;SDS011;40710;51.120;13.136;2024-03-08T02:38:10;47.91;;;45.86;;
54328;SDS011;40710;51.120;13.136;2024-03-08T02:40:34;47.88;;;45.95;;
54328;SDS011;40710;51.120;13.136;2024-03-08T02:42:59;47.75;;;46.08;;
54328;SDS011;40710;51.120;13.136;2024-03-08T02:45:23;47.71;;;45.66;;
54328;SDS011;40710;51.120;13.136;2024-03-08T02:47:48;48.30;;;46.28;;
54328;SDS011;40710;51.120;13.136;2024-03-08T02:50:15;47.32;;;45.32;;
54328;SDS011;40710;51.120;13.136;2024-03-08T02:52:40;46.81;;;45.07;;
54328;SDS011;40710;51.120;13.136;2024-03-08T02:55:06;46.27;;;44.54;;
54328;SDS011;40710;51.120;13.136;2024-03-08T02:57:30;47.78;;;45.40;;
54328;SDS011;40710;51.120;13.136;2024-03-08T02:59:56;46.01;;;44.36;;
54328;SDS011;40710;51.120;13.136;2024-03-08T03:02:20;45.33;;;43.67;;
54328;SDS011;40710;51.120;13.136;2024-03-08T03:04:47;46.61;;;44.29;;
54328;SDS011;40710;51.120;13.136;2024-03-08T03:07:12;47.16;;;45.01;;
54328;SDS011;40710;51.120;13.136;2024-03-08T03:09:37;46.92;;;44.84;;
54328;SDS011;40710;51.120;13.136;2024-03-08T03:12:01;47.48;;;45.58;;
54328;SDS011;40710;51.120;13.136;2024-03-08T03:14:26;47.92;;;45.93;;
54328;SDS011;40710;51.120;13.136;2024-03-08T03:16:51;49.92;;;47.94;;
54328;SDS011;40710;51.120;13.136;2024-03-08T03:19:15;48.67;;;46.91;;
54328;SDS011;40710;51.120;13.136;2024-03-08T03:21:40;48.14;;;46.24;;
54328;SDS011;40710;51.120;13.136;2024-03-08T03:24:07;48.20;;;46.33;;
54328;SDS011;40710;51.120;13.136;2024-03-08T03:26:34;49.21;;;47.20;;
54328;SDS011;40710;51.120;13.136;2024-03-08T03:28:58;48.52;;;46.58;;
54328;SDS011;40710;51.120;13.136;2024-03-08T03:31:24;47.93;;;45.72;;
54328;SDS011;40710;51.120;13.136;2024-03-08T03:33:49;47.07;;;45.15;;
54328;SDS011;40710;51.120;13.136;2024-03-08T03:36:15;47.06;;;45.34;;
54328;SDS011;40710;51.120;13.136;2024-03-08T03:38:40;46.20;;;44.21;;
54328;SDS011;40710;51.120;13.136;2024-03-08T03:41:05;46.57;;;44.55;;
54328;SDS011;40710;51.120;13.136;2024-03-08T03:43:34;46.30;;;44.52;;
54328;SDS011;40710;51.120;13.136;2024-03-08T03:45:58;46.37;;;44.52;;
54328;SDS011;40710;51.120;13.136;2024-03-08T03:48:23;46.86;;;45.02;;
54328;SDS011;40710;51.120;13.136;2024-03-08T03:50:48;45.15;;;43.46;;
54328;SDS011;40710;51.120;13.136;2024-03-08T03:53:14;45.98;;;44.14;;
54328;SDS011;40710;51.120;13.136;2024-03-08T03:55:38;45.26;;;43.58;;
54328;SDS011;40710;51.120;13.136;2024-03-08T03:58:03;45.76;;;44.11;;
54328;SDS011;40710;51.120;13.136;2024-03-08T04:00:28;47.70;;;45.62;;
54328;SDS011;40710;51.120;13.136;2024-03-08T04:02:52;47.84;;;46.01;;
54328;SDS011;40710;51.120;13.136;2024-03-08T04:05:17;49.37;;;47.47;;
54328;SDS011;40710;51.120;13.136;2024-03-08T04:07:42;49.87;;;48.23;;
54328;SDS011;40710;51.120;13.136;2024-03-08T04:10:07;51.57;;;49.35;;
54328;SDS011;40710;51.120;13.136;2024-03-08T04:12:33;48.92;;;47.26;;
54328;SDS011;40710;51.120;13.136;2024-03-08T04:14:58;48.82;;;47.08;;
54328;SDS011;40710;51.120;13.136;2024-03-08T04:17:23;49.03;;;47.03;;
54328;SDS011;40710;51.120;13.136;2024-03-08T04:19:48;49.84;;;47.85;;
54328;SDS011;40710;51.120;13.136;2024-03-08T04:22:13;50.70;;;48.90;;
54328;SDS011;40710;51.120;13.136;2024-03-08T04:24:37;48.60;;;46.71;;
54328;SDS011;40710;51.120;13.136;2024-03-08T04:27:02;50.18;;;47.99;;
54328;SDS011;40710;51.120;13.136;2024-03-08T04:29:28;48.28;;;46.43;;
54328;SDS011;40710;51.120;13.136;2024-03-08T04:31:53;49.67;;;47.53;;
54328;SDS011;40710;51.120;13.136;2024-03-08T04:34:20;48.92;;;46.93;;
54328;SDS011;40710;51.120;13.136;2024-03-08T04:36:45;52.07;;;49.55;;
54328;SDS011;40710;51.120;13.136;2024-03-08T04:39:10;51.16;;;49.05;;
54328;SDS011;40710;51.120;13.136;2024-03-08T04:41:37;50.92;;;49.18;;
54328;SDS011;40710;51.120;13.136;2024-03-08T04:44:02;51.45;;;49.44;;
54328;SDS011;40710;51.120;13.136;2024-03-08T04:46:27;52.04;;;49.69;;
54328;SDS011;40710;51.120;13.136;2024-03-08T04:48:52;50.87;;;48.80;;
54328;SDS011;40710;51.120;13.136;2024-03-08T04:51:17;48.40;;;46.81;;
54328;SDS011;40710;51.120;13.136;2024-03-08T04:53:43;48.00;;;46.08;;
54328;SDS011;40710;51.120;13.136;2024-03-08T04:56:08;48.99;;;46.89;;
54328;SDS011;40710;51.120;13.136;2024-03-08T04:58:33;47.90;;;46.09;;
54328;SDS011;40710;51.120;13.136;2024-03-08T05:01:00;48.55;;;47.21;;
54328;SDS011;40710;51.120;13.136;2024-03-08T05:03:25;51.00;;;49.24;;
54328;SDS011;40710;51.120;13.136;2024-03-08T05:05:50;50.97;;;48.96;;
54328;SDS011;40710;51.120;13.136;2024-03-08T05:08:14;53.03;;;50.80;;
54328;SDS011;40710;51.120;13.136;2024-03-08T05:10:39;52.53;;;49.95;;
54328;SDS011;40710;51.120;13.136;2024-03-08T05:13:04;50.95;;;48.79;;
54328;SDS011;40710;51.120;13.136;2024-03-08T05:15:28;52.16;;;49.99;;
54328;SDS011;40710;51.120;13.136;2024-03-08T05:17:53;54.08;;;51.55;;
54328;SDS011;40710;51.120;13.136;2024-03-08T05:20:17;52.12;;;50.18;;
54328;SDS011;40710;51.120;13.136;2024-03-08T05:22:43;52.28;;;50.19;;
54328;SDS011;40710;51.120;13.136;2024-03-08T05:25:08;52.73;;;50.20;;
54328;SDS011;40710;51.120;13.136;2024-03-08T05:27:33;51.91;;;49.62;;
54328;SDS011;40710;51.120;13.136;2024-03-08T05:29:57;51.32;;;49.26;;
54328;SDS011;40710;51.120;13.136;2024-03-08T05:32:22;52.07;;;49.78;;
54328;SDS011;40710;51.120;13.136;2024-03-08T05:34:46;51.79;;;50.06;;
54328;SDS011;40710;51.120;13.136;2024-03-08T05:37:11;50.37;;;48.40;;
54328;SDS011;40710;51.120;13.136;2024-03-08T05:39:36;51.83;;;49.70;;
54328;SDS011;40710;51.120;13.136;2024-03-08T05:42:00;52.76;;;50.29;;
54328;SDS011;40710;51.120;13.136;2024-03-08T05:44:25;50.85;;;48.69;;
54328;SDS011;40710;51.120;13.136;2024-03-08T05:46:52;51.24;;;49.21;;
54328;SDS011;40710;51.120;13.136;2024-03-08T05:49:17;50.88;;;48.79;;
54328;SDS011;40710;51.120;13.136;2024-03-08T05:51:42;52.10;;;50.01;;
54328;SDS011;40710;51.120;13.136;2024-03-08T05:54:07;52.24;;;49.85;;
54328;SDS011;40710;51.120;13.136;2024-03-08T05:56:37;51.17;;;49.53;;
54328;SDS011;40710;51.120;13.136;2024-03-08T05:59:03;51.55;;;49.91;;
54328;SDS011;40710;51.120;13.136;2024-03-08T06:01:28;52.47;;;50.62;;
54328;SDS011;40710;51.120;13.136;2024-03-08T06:03:53;51.64;;;49.51;;
54328;SDS011;40710;51.120;13.136;2024-03-08T06:06:21;51.74;;;49.67;;
54328;SDS011;40710;51.120;13.136;2024-03-08T06:08:49;82.48;;;78.37;;
54328;SDS011;40710;51.120;13.136;2024-03-08T06:11:15;61.23;;;58.39;;
54328;SDS011;40710;51.120;13.136;2024-03-08T06:13:41;54.66;;;52.24;;
54328;SDS011;40710;51.120;13.136;2024-03-08T06:16:06;54.84;;;52.31;;
54328;SDS011;40710;51.120;13.136;2024-03-08T06:18:32;52.77;;;50.39;;
54328;SDS011;40710;51.120;13.136;2024-03-08T06:20:57;51.06;;;49.08;;
54328;SDS011;40710;51.120;13.136;2024-03-08T06:23:21;52.22;;;49.71;;
54328;SDS011;40710;51.120;13.136;2024-03-08T06:25:46;51.10;;;48.96;;
54328;SDS011;40710;51.120;13.136;2024-03-08T06:28:11;50.59;;;48.46;;
54328;SDS011;40710;51.120;13.136;2024-03-08T06:30:35;51.27;;;48.67;;
54328;SDS011;40710;51.120;13.136;2024-03-08T06:33:00;50.26;;;47.82;;
54328;SDS011;40710;51.120;13.136;2024-03-08T06:35:24;50.28;;;48.07;;
54328;SDS011;40710;51.120;13.136;2024-03-08T06:37:49;49.84;;;47.59;;
54328;SDS011;40710;51.120;13.136;2024-03-08T06:40:13;49.55;;;47.35;;
54328;SDS011;40710;51.120;13.136;2024-03-08T06:42:39;49.35;;;47.20;;
54328;SDS011;40710;51.120;13.136;2024-03-08T06:45:04;49.63;;;47.75;;
54328;SDS011;40710;51.120;13.136;2024-03-08T06:47:29;51.23;;;48.93;;
54328;SDS011;40710;51.120;13.136;2024-03-08T06:49:53;51.45;;;49.47;;
54328;SDS011;40710;51.120;13.136;2024-03-08T06:52:18;51.37;;;49.38;;
54328;SDS011;40710;51.120;13.136;2024-03-08T06:54:43;50.57;;;48.50;;
54328;SDS011;40710;51.120;13.136;2024-03-08T06:57:07;49.44;;;47.34;;
54328;SDS011;40710;51.120;13.136;2024-03-08T06:59:32;49.07;;;47.09;;
54328;SDS011;40710;51.120;13.136;2024-03-08T07:01:57;49.08;;;46.97;;
54328;SDS011;40710;51.120;13.136;2024-03-08T07:04:23;48.99;;;47.02;;
54328;SDS011;40710;51.120;13.136;2024-03-08T07:06:50;47.57;;;45.68;;
54328;SDS011;40710;51.120;13.136;2024-03-08T07:09:15;47.67;;;45.96;;
54328;SDS011;40710;51.120;13.136;2024-03-08T07:11:43;46.24;;;44.64;;
54328;SDS011;40710;51.120;13.136;2024-03-08T07:14:07;46.88;;;44.92;;
54328;SDS011;40710;51.120;13.136;2024-03-08T07:16:33;45.76;;;44.12;;
54328;SDS011;40710;51.120;13.136;2024-03-08T07:18:58;44.27;;;42.85;;
54328;SDS011;40710;51.120;13.136;2024-03-08T07:21:23;44.26;;;42.78;;
54328;SDS011;40710;51.120;13.136;2024-03-08T07:23:48;43.06;;;41.50;;
54328;SDS011;40710;51.120;13.136;2024-03-08T07:26:43;43.61;;;42.15;;
54328;SDS011;40710;51.120;13.136;2024-03-08T07:29:08;41.39;;;40.18;;
54328;SDS011;40710;51.120;13.136;2024-03-08T07:31:32;42.62;;;40.94;;
54328;SDS011;40710;51.120;13.136;2024-03-08T07:34:06;41.15;;;39.81;;
54328;SDS011;40710;51.120;13.136;2024-03-08T07:36:31;41.77;;;40.31;;
54328;SDS011;40710;51.120;13.136;2024-03-08T07:38:56;40.06;;;38.75;;
54328;SDS011;40710;51.120;13.136;2024-03-08T07:41:21;41.11;;;39.76;;
54328;SDS011;40710;51.120;13.136;2024-03-08T07:43:46;39.95;;;38.62;;
54328;SDS011;40710;51.120;13.136;2024-03-08T07:46:11;39.48;;;38.28;;
54328;SDS011;40710;51.120;13.136;2024-03-08T07:48:37;39.93;;;38.25;;
54328;SDS011;40710;51.120;13.136;2024-03-08T07:51:02;38.22;;;36.99;;
54328;SDS011;40710;51.120;13.136;2024-03-08T07:53:27;38.15;;;37.15;;
54328;SDS011;40710;51.120;13.136;2024-03-08T07:55:52;38.92;;;37.76;;
54328;SDS011;40710;51.120;13.136;2024-03-08T07:58:16;38.18;;;37.01;;
54328;SDS011;40710;51.120;13.136;2024-03-08T08:00:41;36.95;;;35.88;;
54328;SDS011;40710;51.120;13.136;2024-03-08T08:03:07;38.02;;;36.88;;
54328;SDS011;40710;51.120;13.136;2024-03-08T08:05:33;37.40;;;36.27;;
54328;SDS011;40710;51.120;13.136;2024-03-08T08:07:59;37.91;;;36.79;;
54328;SDS011;40710;51.120;13.136;2024-03-08T08:10:24;36.61;;;35.63;;
54328;SDS011;40710;51.120;13.136;2024-03-08T08:12:49;36.79;;;35.66;;
54328;SDS011;40710;51.120;13.136;2024-03-08T08:15:13;37.18;;;36.09;;
54328;SDS011;40710;51.120;13.136;2024-03-08T08:17:39;36.41;;;35.68;;
54328;SDS011;40710;51.120;13.136;2024-03-08T08:20:04;36.14;;;35.49;;
54328;SDS011;40710;51.120;13.136;2024-03-08T08:22:29;36.20;;;35.18;;
54328;SDS011;40710;51.120;13.136;2024-03-08T08:24:54;37.62;;;36.51;;
54328;SDS011;40710;51.120;13.136;2024-03-08T08:27:18;35.99;;;35.24;;
54328;SDS011;40710;51.120;13.136;2024-03-08T08:29:43;35.02;;;34.29;;
54328;SDS011;40710;51.120;13.136;2024-03-08T08:32:10;34.86;;;34.20;;
54328;SDS011;40710;51.120;13.136;2024-03-08T08:34:34;36.01;;;35.06;;
54328;SDS011;40710;51.120;13.136;2024-03-08T08:36:59;36.28;;;35.21;;
54328;SDS011;40710;51.120;13.136;2024-03-08T08:39:23;35.93;;;35.00;;
54328;SDS011;40710;51.120;13.136;2024-03-08T08:41:50;36.12;;;35.24;;
54328;SDS011;40710;51.120;13.136;2024-03-08T08:44:14;37.24;;;36.45;;
54328;SDS011;40710;51.120;13.136;2024-03-08T08:46:39;35.83;;;35.11;;
54328;SDS011;40710;51.120;13.136;2024-03-08T08:49:04;36.03;;;34.79;;
54328;SDS011;40710;51.120;13.136;2024-03-08T08:51:30;36.20;;;35.00;;
54328;SDS011;40710;51.120;13.136;2024-03-08T08:53:57;35.16;;;34.23;;
54328;SDS011;40710;51.120;13.136;2024-03-08T08:56:22;34.25;;;33.66;;
54328;SDS011;40710;51.120;13.136;2024-03-08T08:58:46;34.13;;;33.20;;
54328;SDS011;40710;51.120;13.136;2024-03-08T09:01:12;33.84;;;32.91;;
54328;SDS011;40710;51.120;13.136;2024-03-08T09:03:36;32.89;;;32.16;;
54328;SDS011;40710;51.120;13.136;2024-03-08T09:06:01;33.34;;;32.55;;
54328;SDS011;40710;51.120;13.136;2024-03-08T09:08:26;33.67;;;32.74;;
54328;SDS011;40710;51.120;13.136;2024-03-08T09:10:51;33.33;;;32.34;;
54328;SDS011;40710;51.120;13.136;2024-03-08T09:13:15;34.30;;;33.38;;
54328;SDS011;40710;51.120;13.136;2024-03-08T09:15:41;33.13;;;32.60;;
54328;SDS011;40710;51.120;13.136;2024-03-08T09:18:06;33.64;;;32.80;;
54328;SDS011;40710;51.120;13.136;2024-03-08T09:20:30;33.32;;;32.32;;
54328;SDS011;40710;51.120;13.136;2024-03-08T09:22:56;33.31;;;32.60;;
54328;SDS011;40710;51.120;13.136;2024-03-08T09:25:20;32.82;;;31.99;;
54328;SDS011;40710;51.120;13.136;2024-03-08T09:27:45;33.59;;;33.04;;
54328;SDS011;40710;51.120;13.136;2024-03-08T09:30:10;32.73;;;32.02;;
54328;SDS011;40710;51.120;13.136;2024-03-08T09:32:37;32.61;;;31.79;;
54328;SDS011;40710;51.120;13.136;2024-03-08T09:35:02;33.30;;;32.62;;
54328;SDS011;40710;51.120;13.136;2024-03-08T09:37:27;33.92;;;33.12;;
54328;SDS011;40710;51.120;13.136;2024-03-08T09:39:51;32.03;;;31.50;;
54328;SDS011;40710;51.120;13.136;2024-03-08T09:42:16;32.42;;;31.93;;
54328;SDS011;40710;51.120;13.136;2024-03-08T09:44:44;32.25;;;31.46;;
54328;SDS011;40710;51.120;13.136;2024-03-08T09:47:13;31.48;;;31.25;;
54328;SDS011;40710;51.120;13.136;2024-03-08T09:49:38;32.81;;;31.86;;
54328;SDS011;40710;51.120;13.136;2024-03-08T09:52:04;31.43;;;30.91;;
54328;SDS011;40710;51.120;13.136;2024-03-08T09:54:29;33.04;;;32.36;;
54328;SDS011;40710;51.120;13.136;2024-03-08T09:56:53;30.51;;;30.03;;
54328;SDS011;40710;51.120;13.136;2024-03-08T09:59:19;31.26;;;30.85;;
54328;SDS011;40710;51.120;13.136;2024-03-08T10:01:52;31.61;;;31.22;;
54328;SDS011;40710;51.120;13.136;2024-03-08T10:04:16;32.58;;;31.84;;
54328;SDS011;40710;51.120;13.136;2024-03-08T10:06:41;32.79;;;32.08;;
54328;SDS011;40710;51.120;13.136;2024-03-08T10:09:06;31.91;;;31.74;;
54328;SDS011;40710;51.120;13.136;2024-03-08T10:11:32;32.33;;;31.87;;
54328;SDS011;40710;51.120;13.136;2024-03-08T10:13:57;31.78;;;31.27;;
54328;SDS011;40710;51.120;13.136;2024-03-08T10:16:21;31.10;;;30.72;;
54328;SDS011;40710;51.120;13.136;2024-03-08T10:18:48;32.57;;;31.71;;
54328;SDS011;40710;51.120;13.136;2024-03-08T10:21:12;31.42;;;30.71;;
54328;SDS011;40710;51.120;13.136;2024-03-08T10:23:39;30.81;;;30.34;;
54328;SDS011;40710;51.120;13.136;2024-03-08T10:26:10;30.79;;;30.06;;
54328;SDS011;40710;51.120;13.136;2024-03-08T10:28:40;30.61;;;30.26;;
54328;SDS011;40710;51.120;13.136;2024-03-08T10:31:05;30.60;;;30.11;;
54328;SDS011;40710;51.120;13.136;2024-03-08T10:33:30;31.14;;;30.51;;
54328;SDS011;40710;51.120;13.136;2024-03-08T10:35:54;30.33;;;29.94;;
54328;SDS011;40710;51.120;13.136;2024-03-08T10:38:20;29.49;;;29.04;;
54328;SDS011;40710;51.120;13.136;2024-03-08T10:40:48;27.79;;;27.59;;
54328;SDS011;40710;51.120;13.136;2024-03-08T10:43:18;27.65;;;27.32;;
54328;SDS011;40710;51.120;13.136;2024-03-08T10:45:49;29.52;;;28.88;;
54328;SDS011;40710;51.120;13.136;2024-03-08T10:48:28;27.79;;;27.51;;
54328;SDS011;40710;51.120;13.136;2024-03-08T10:51:00;29.61;;;28.82;;
54328;SDS011;40710;51.120;13.136;2024-03-08T10:53:27;28.54;;;28.20;;
54328;SDS011;40710;51.120;13.136;2024-03-08T10:55:53;28.62;;;28.22;;
54328;SDS011;40710;51.120;13.136;2024-03-08T10:58:21;28.49;;;27.85;;
54328;SDS011;40710;51.120;13.136;2024-03-08T11:00:47;28.82;;;28.28;;
54328;SDS011;40710;51.120;13.136;2024-03-08T11:06:05;28.52;;;28.03;;
54328;SDS011;40710;51.120;13.136;2024-03-08T11:08:32;32.78;;;32.14;;
54328;SDS011;40710;51.120;13.136;2024-03-08T11:10:58;35.03;;;33.96;;
54328;SDS011;40710;51.120;13.136;2024-03-08T11:13:39;29.21;;;28.45;;
54328;SDS011;40710;51.120;13.136;2024-03-08T11:16:08;27.67;;;27.33;;
54328;SDS011;40710;51.120;13.136;2024-03-08T11:18:35;27.70;;;27.50;;
54328;SDS011;40710;51.120;13.136;2024-03-08T11:21:02;28.84;;;28.20;;
54328;SDS011;40710;51.120;13.136;2024-03-08T11:23:30;29.73;;;28.70;;
54328;SDS011;40710;51.120;13.136;2024-03-08T11:25:55;27.82;;;27.03;;
54328;SDS011;40710;51.120;13.136;2024-03-08T11:28:20;27.93;;;27.34;;
54328;SDS011;40710;51.120;13.136;2024-03-08T11:33:23;27.46;;;27.24;;
54328;SDS011;40710;51.120;13.136;2024-03-08T11:35:47;27.68;;;27.30;;
54328;SDS011;40710;51.120;13.136;2024-03-08T11:38:12;27.75;;;27.45;;
54328;SDS011;40710;51.120;13.136;2024-03-08T11:40:37;27.23;;;27.03;;
54328;SDS011;40710;51.120;13.136;2024-03-08T11:43:04;27.31;;;27.05;;
54328;SDS011;40710;51.120;13.136;2024-03-08T11:45:31;27.78;;;27.22;;
54328;SDS011;40710;51.120;13.136;2024-03-08T11:47:55;28.08;;;27.38;;
54328;SDS011;40710;51.120;13.136;2024-03-08T11:50:20;29.67;;;29.01;;
54328;SDS011;40710;51.120;13.136;2024-03-08T11:52:48;32.21;;;31.33;;
54328;SDS011;40710;51.120;13.136;2024-03-08T11:55:13;27.91;;;27.61;;
54328;SDS011;40710;51.120;13.136;2024-03-08T11:57:38;27.11;;;26.69;;
54328;SDS011;40710;51.120;13.136;2024-03-08T12:00:03;28.22;;;27.59;;
54328;SDS011;40710;51.120;13.136;2024-03-08T12:02:31;28.52;;;28.26;;
54328;SDS011;40710;51.120;13.136;2024-03-08T12:04:56;28.08;;;27.60;;
54328;SDS011;40710;51.120;13.136;2024-03-08T12:07:22;26.76;;;26.44;;
54328;SDS011;40710;51.120;13.136;2024-03-08T12:12:41;27.20;;;26.91;;
54328;SDS011;40710;51.120;13.136;2024-03-08T12:15:06;29.19;;;28.72;;
54328;SDS011;40710;51.120;13.136;2024-03-08T12:17:32;28.17;;;27.79;;
54328;SDS011;40710;51.120;13.136;2024-03-08T12:19:57;33.03;;;32.40;;
54328;SDS011;40710;51.120;13.136;2024-03-08T12:22:35;30.09;;;29.79;;
54328;SDS011;40710;51.120;13.136;2024-03-08T12:25:03;27.17;;;27.06;;
54328;SDS011;40710;51.120;13.136;2024-03-08T12:27:34;28.88;;;28.00;;
54328;SDS011;40710;51.120;13.136;2024-03-08T12:29:59;28.19;;;27.50;;
54328;SDS011;40710;51.120;13.136;2024-03-08T12:32:23;27.81;;;27.16;;
54328;SDS011;40710;51.120;13.136;2024-03-08T12:34:52;28.35;;;27.66;;
54328;SDS011;40710;51.120;13.136;2024-03-08T12:37:17;28.18;;;27.41;;
54328;SDS011;40710;51.120;13.136;2024-03-08T12:39:42;28.50;;;27.71;;
54328;SDS011;40710;51.120;13.136;2024-03-08T12:42:06;27.59;;;26.90;;
54328;SDS011;40710;51.120;13.136;2024-03-08T12:44:31;27.55;;;27.07;;
54328;SDS011;40710;51.120;13.136;2024-03-08T12:46:56;28.16;;;27.73;;
54328;SDS011;40710;51.120;13.136;2024-03-08T12:49:23;25.99;;;25.58;;
54328;SDS011;40710;51.120;13.136;2024-03-08T12:51:47;26.78;;;26.06;;
54328;SDS011;40710;51.120;13.136;2024-03-08T12:54:12;27.65;;;27.17;;
54328;SDS011;40710;51.120;13.136;2024-03-08T12:56:37;28.52;;;27.92;;
54328;SDS011;40710;51.120;13.136;2024-03-08T12:59:03;28.39;;;27.67;;
54328;SDS011;40710;51.120;13.136;2024-03-08T13:01:29;28.63;;;27.85;;
54328;SDS011;40710;51.120;13.136;2024-03-08T13:03:56;31.56;;;30.77;;
54328;SDS011;40710;51.120;13.136;2024-03-08T13:06:21;29.82;;;29.16;;
54328;SDS011;40710;51.120;13.136;2024-03-08T13:08:48;28.25;;;27.75;;
54328;SDS011;40710;51.120;13.136;2024-03-08T13:11:13;28.19;;;27.48;;
54328;SDS011;40710;51.120;13.136;2024-03-08T13:13:41;27.29;;;27.10;;
54328;SDS011;40710;51.120;13.136;2024-03-08T13:16:06;27.78;;;27.04;;
54328;SDS011;40710;51.120;13.136;2024-03-08T13:18:37;28.14;;;27.33;;
54328;SDS011;40710;51.120;13.136;2024-03-08T13:21:02;27.70;;;26.92;;
54328;SDS011;40710;51.120;13.136;2024-03-08T13:23:30;28.06;;;27.27;;
54328;SDS011;40710;51.120;13.136;2024-03-08T13:25:55;26.95;;;26.37;;
54328;SDS011;40710;51.120;13.136;2024-03-08T13:28:21;26.13;;;25.71;;
54328;SDS011;40710;51.120;13.136;2024-03-08T13:30:48;26.18;;;25.84;;
54328;SDS011;40710;51.120;13.136;2024-03-08T13:33:12;25.92;;;25.52;;
54328;SDS011;40710;51.120;13.136;2024-03-08T13:35:38;26.04;;;25.54;;
54328;SDS011;40710;51.120;13.136;2024-03-08T13:38:02;25.60;;;25.17;;
54328;SDS011;40710;51.120;13.136;2024-03-08T13:40:28;25.59;;;24.95;;
54328;SDS011;40710;51.120;13.136;2024-03-08T13:42:53;25.91;;;25.15;;
54328;SDS011;40710;51.120;13.136;2024-03-08T13:45:17;25.09;;;24.52;;
54328;SDS011;40710;51.120;13.136;2024-03-08T13:47:48;25.01;;;24.47;;
54328;SDS011;40710;51.120;13.136;2024-03-08T13:50:13;24.48;;;23.77;;
54328;SDS011;40710;51.120;13.136;2024-03-08T13:52:42;23.46;;;23.23;;
54328;SDS011;40710;51.120;13.136;2024-03-08T13:55:08;23.42;;;22.92;;
54328;SDS011;40710;51.120;13.136;2024-03-08T13:57:33;22.98;;;22.65;;
54328;SDS011;40710;51.120;13.136;2024-03-08T13:59:57;21.60;;;21.51;;
54328;SDS011;40710;51.120;13.136;2024-03-08T14:02:22;21.88;;;21.55;;
54328;SDS011;40710;51.120;13.136;2024-03-08T14:04:52;23.16;;;22.62;;
54328;SDS011;40710;51.120;13.136;2024-03-08T14:07:16;23.06;;;22.70;;